Time;durP1;ratioP1;P1;durP2;ratioP2;P2;SDS_P1;SDS_P2;PMS_P1;PMS_P2;Temp;Humidity;BMP_temperature;BMP_pressure;BME280_temperature;BME280_humidity;BME280_pressure;Samples;Min_cycle;Max_cycle;Signal;HPM_P1;HPM_P2
2023/07/20 00:00:25;;;;;;;9.43;6.10;;;;;;;24.09;49.96;93117.00;5012837;28;20038;-93
2023/07/20 00:02:51;;;;;;;9.98;6.30;;;;;;;24.08;50.43;93123.81;5003151;28;20045;-93
2023/07/20 00:05:21;;;;;;;10.20;6.70;;;;;;;24.09;50.37;93115.00;4978701;28;20030;-92
2023/07/20 00:07:47;;;;;;;10.18;7.25;;;;;;;24.10;50.39;93126.78;5004540;28;20045;-92
2023/07/20 00:10:12;;;;;;;12.73;6.95;;;;;;;24.09;50.31;93114.25;4987861;28;20536;-92
2023/07/20 00:12:38;;;;;;;8.70;6.47;;;;;;;24.08;50.32;93098.97;4991768;28;20042;-93
2023/07/20 00:15:04;;;;;;;10.57;7.00;;;;;;;24.08;50.27;93093.44;4998123;28;20750;-92
2023/07/20 00:17:29;;;;;;;8.50;5.28;;;;;;;24.06;50.39;93090.50;5018722;28;20049;-93
2023/07/20 00:19:55;;;;;;;7.88;5.22;;;;;;;24.06;50.26;93080.19;5014300;28;20040;-93
2023/07/20 00:22:20;;;;;;;8.90;5.80;;;;;;;24.06;50.40;93082.97;5017813;28;20045;-92
2023/07/20 00:24:46;;;;;;;9.43;6.10;;;;;;;24.05;50.33;93078.00;4998449;28;20037;-92
2023/07/20 00:27:11;;;;;;;7.38;5.57;;;;;;;24.06;50.39;93088.47;5010610;28;20080;-92
2023/07/20 00:29:36;;;;;;;6.93;5.63;;;;;;;24.05;50.20;93084.25;5015283;28;20092;-92
2023/07/20 00:32:04;;;;;;;9.23;5.30;;;;;;;24.05;50.20;93094.56;5008200;28;20046;-93
2023/07/20 00:34:31;;;;;;;8.57;6.47;;;;;;;24.05;50.44;93095.28;4992456;28;20309;-93
2023/07/20 00:36:56;;;;;;;9.82;6.75;;;;;;;24.05;50.32;93100.09;4980388;28;20045;-92
2023/07/20 00:39:21;;;;;;;6.97;5.53;;;;;;;24.06;50.11;93099.53;4979099;28;21495;-93
2023/07/20 00:41:47;;;;;;;10.57;6.15;;;;;;;24.05;50.40;93116.66;4978898;28;20034;-92
2023/07/20 00:44:12;;;;;;;8.77;5.70;;;;;;;24.05;50.57;93141.50;4995421;28;20050;-92
2023/07/20 00:46:38;;;;;;;10.00;5.60;;;;;;;24.05;50.29;93145.00;4997061;28;20072;-92
2023/07/20 00:49:03;;;;;;;9.75;5.82;;;;;;;24.06;50.65;93112.59;5026940;28;20054;-91
2023/07/20 00:51:29;;;;;;;8.32;6.13;;;;;;;24.04;50.52;93082.78;5013347;28;20065;-92
2023/07/20 00:53:55;;;;;;;8.43;5.18;;;;;;;24.03;50.57;93094.41;5011842;28;20038;-92
2023/07/20 00:56:20;;;;;;;8.57;5.78;;;;;;;24.02;50.52;93090.91;4996502;28;20037;-92
2023/07/20 00:58:45;;;;;;;9.55;5.88;;;;;;;24.02;50.59;93088.16;5014808;28;20041;-92
2023/07/20 01:01:11;;;;;;;6.32;4.93;;;;;;;24.03;50.34;93094.41;5001662;28;20092;-92
2023/07/20 01:03:37;;;;;;;7.82;5.38;;;;;;;24.02;50.36;93085.38;4978563;28;20107;-92
2023/07/20 01:06:09;;;;;;;8.77;6.18;;;;;;;24.02;50.65;93096.44;4979622;28;20100;-93
2023/07/20 01:08:40;;;;;;;7.35;5.47;;;;;;;24.02;50.65;93095.69;5010956;28;20142;-92
2023/07/20 01:11:15;;;;;;;9.25;5.68;;;;;;;24.02;50.60;93104.72;5001339;28;20141;-92
2023/07/20 01:13:42;;;;;;;10.32;5.93;;;;;;;24.03;50.43;93094.41;4991782;28;20092;-93
2023/07/20 01:16:09;;;;;;;9.02;5.90;;;;;;;24.01;50.66;93083.91;5016431;28;20037;-92
2023/07/20 01:18:34;;;;;;;8.20;5.70;;;;;;;24.02;50.61;93068.81;5034508;28;20032;-92
2023/07/20 01:21:03;;;;;;;7.07;5.45;;;;;;;24.02;50.63;93084.66;4998719;28;20041;-92
2023/07/20 01:23:57;;;;;;;7.65;5.38;;;;;;;24.03;50.57;93083.38;4997014;28;20087;-92
2023/07/20 01:26:40;;;;;;;9.55;5.82;;;;;;;24.00;50.65;93093.47;5022969;28;20071;-92
2023/07/20 01:29:36;;;;;;;8.27;5.72;;;;;;;24.01;50.43;93102.50;5016745;28;20038;-93
2023/07/20 01:32:03;;;;;;;9.10;5.75;;;;;;;24.02;50.71;93087.41;5009979;28;20057;-92
2023/07/20 01:34:28;;;;;;;7.18;5.05;;;;;;;24.00;50.54;93090.00;5003148;28;20045;-92
2023/07/20 01:36:53;;;;;;;8.63;5.43;;;;;;;24.01;50.48;93092.19;4993900;28;20044;-93
2023/07/20 01:39:20;;;;;;;9.38;5.22;;;;;;;24.00;50.73;93093.47;5014758;28;20042;-93
2023/07/20 01:41:46;;;;;;;8.23;5.50;;;;;;;24.01;50.52;93108.75;5022511;28;20049;-93
2023/07/20 01:44:12;;;;;;;8.27;5.85;;;;;;;23.99;50.80;93108.59;5012739;28;20069;-93
2023/07/20 01:46:38;;;;;;;7.00;5.10;;;;;;;24.00;50.64;93101.78;5003387;28;20038;-92
2023/07/20 01:49:03;;;;;;;8.93;5.40;;;;;;;24.01;50.61;93105.25;4995618;28;20493;-92
2023/07/20 01:51:29;;;;;;;8.57;5.68;;;;;;;24.00;50.83;93104.53;5004744;28;20422;-92
2023/07/20 01:53:54;;;;;;;8.63;5.45;;;;;;;23.99;50.53;93102.31;4979652;28;20404;-92
2023/07/20 01:56:20;;;;;;;8.70;5.43;;;;;;;23.99;50.62;93094.78;4995151;28;20084;-92
2023/07/20 01:58:45;;;;;;;7.03;4.85;;;;;;;23.98;50.45;93096.06;5002796;28;20060;-92
2023/07/20 02:01:11;;;;;;;8.93;5.75;;;;;;;24.00;50.79;93098.28;5009457;28;20038;-92
2023/07/20 02:03:37;;;;;;;10.00;5.40;;;;;;;24.00;50.62;93087.97;4980385;28;20066;-92
2023/07/20 02:06:03;;;;;;;7.63;5.10;;;;;;;23.98;50.64;93104.34;4997199;28;20041;-92
2023/07/20 02:08:28;;;;;;;6.63;4.82;;;;;;;23.99;50.88;93100.31;4996929;28;20064;-93
2023/07/20 02:10:55;;;;;;;8.80;5.20;;;;;;;23.98;50.66;93101.59;5005573;28;20030;-92
2023/07/20 02:13:21;;;;;;;6.43;5.07;;;;;;;23.98;50.37;93112.63;4991310;28;20053;-93
2023/07/20 02:15:49;;;;;;;7.85;5.10;;;;;;;23.98;50.54;93107.09;4997378;28;20129;-93
2023/07/20 02:18:14;;;;;;;6.03;4.65;;;;;;;23.99;50.66;93111.34;4979987;28;20073;-92
2023/07/20 02:20:41;;;;;;;7.13;5.15;;;;;;;23.97;50.73;93122.19;4983608;28;20037;-93
2023/07/20 02:23:07;;;;;;;8.15;5.60;;;;;;;23.99;50.62;93127.19;4989779;28;20034;-92
2023/07/20 02:25:32;;;;;;;5.90;4.57;;;;;;;23.99;50.55;93121.66;5013235;28;20034;-92
2023/07/20 02:27:58;;;;;;;8.63;5.32;;;;;;;23.98;50.66;93117.41;4981349;28;20537;-92
2023/07/20 02:30:24;;;;;;;6.63;4.78;;;;;;;23.96;50.67;93120.72;5009823;28;20038;-92
2023/07/20 02:32:49;;;;;;;6.38;5.00;;;;;;;23.98;50.76;93131.22;4996657;28;20052;-92
2023/07/20 02:35:15;;;;;;;7.65;5.05;;;;;;;23.97;50.74;93121.47;5021220;28;20033;-93
2023/07/20 02:37:41;;;;;;;6.65;4.65;;;;;;;23.98;50.72;93120.19;4982728;28;20033;-92
2023/07/20 02:40:07;;;;;;;7.00;5.25;;;;;;;23.98;50.62;93120.91;4979361;28;20041;-91
2023/07/20 02:42:32;;;;;;;7.28;4.85;;;;;;;23.96;50.85;93134.53;4995811;28;20096;-92
2023/07/20 02:44:58;;;;;;;8.98;5.25;;;;;;;23.97;50.77;93130.50;4993593;28;20467;-92
2023/07/20 02:47:23;;;;;;;6.38;4.90;;;;;;;23.96;50.80;93131.78;5006539;28;20030;-93
2023/07/20 02:49:49;;;;;;;7.25;5.22;;;;;;;23.96;50.76;93125.53;4996811;28;20088;-92
2023/07/20 02:52:14;;;;;;;6.63;4.50;;;;;;;23.96;50.79;93140.06;4981878;28;20060;-92
2023/07/20 02:54:40;;;;;;;8.35;4.63;;;;;;;23.95;50.45;93144.09;4998768;28;20033;-92
2023/07/20 02:57:05;;;;;;;7.05;4.63;;;;;;;23.96;50.65;93142.09;4991786;28;20044;-92
2023/07/20 02:59:31;;;;;;;8.02;5.07;;;;;;;23.95;50.70;93151.66;5012897;28;20595;-92
2023/07/20 03:01:58;;;;;;;7.15;4.95;;;;;;;23.93;50.76;93152.94;5007575;28;20049;-92
2023/07/20 03:04:26;;;;;;;6.43;3.95;;;;;;;23.94;50.75;93142.63;5025130;28;20113;-92
2023/07/20 03:06:51;;;;;;;6.60;4.68;;;;;;;23.93;50.83;93133.63;5005251;28;20041;-92
2023/07/20 03:09:17;;;;;;;8.23;5.10;;;;;;;23.94;50.59;93123.31;4998815;28;20049;-92
2023/07/20 03:11:42;;;;;;;8.82;4.93;;;;;;;23.93;50.72;93133.63;5012603;28;20045;-92
2023/07/20 03:14:08;;;;;;;5.38;4.40;;;;;;;23.95;50.70;93126.81;4986451;28;20038;-93
2023/07/20 03:16:33;;;;;;;7.90;4.40;;;;;;;23.95;50.56;93127.53;5017268;28;20041;-92
2023/07/20 03:19:00;;;;;;;7.65;4.60;;;;;;;23.93;50.74;93128.09;4999269;28;20122;-92
2023/07/20 03:21:25;;;;;;;7.53;4.28;;;;;;;23.93;50.76;93132.88;5017615;28;20798;-92
2023/07/20 03:23:52;;;;;;;12.27;3.80;;;;;;;24.10;50.47;93124.00;5015414;28;20265;-93
2023/07/20 03:26:18;;;;;;;4.90;3.28;;;;;;;23.99;49.94;93127.19;5033916;28;20069;-93
2023/07/20 03:28:44;;;;;;;4.60;3.70;;;;;;;23.69;50.41;93130.69;5017945;28;20042;-93
2023/07/20 03:31:09;;;;;;;12.18;6.55;;;;;;;23.50;50.76;93122.75;4992872;28;20049;-91
2023/07/20 03:33:35;;;;;;;7.35;5.40;;;;;;;23.45;50.67;93127.16;5008215;28;20038;-93
2023/07/20 03:36:00;;;;;;;20.10;6.90;;;;;;;23.18;51.69;93121.25;5027599;28;20041;-94
2023/07/20 03:38:27;;;;;;;13.43;8.40;;;;;;;23.14;51.57;93128.41;5032316;28;20030;-93
2023/07/20 03:40:54;;;;;;;59.47;50.05;;;;;;;23.09;51.76;93126.56;5016813;28;20057;-91
2023/07/20 03:43:20;;;;;;;172.07;117.50;;;;;;;23.00;51.94;93124.31;4977494;28;20057;-92
2023/07/20 03:45:47;;;;;;;124.70;70.97;;;;;;;22.91;52.23;93125.59;4988455;28;20041;-93
2023/07/20 03:48:15;;;;;;;21.50;9.68;;;;;;;22.80;52.19;93126.66;4996383;28;20042;-89
2023/07/20 03:50:40;;;;;;;11.07;8.32;;;;;;;22.70;52.89;93138.75;5013578;28;20107;-91
2023/07/20 03:53:07;;;;;;;17.00;7.97;;;;;;;22.67;52.98;93131.56;5007467;28;20033;-91
2023/07/20 03:55:32;;;;;;;11.98;7.38;;;;;;;22.47;53.67;93144.91;5020200;28;20044;-88
2023/07/20 03:57:58;;;;;;;32.78;18.27;;;;;;;22.49;53.53;93141.59;5023737;28;20140;-91
2023/07/20 04:00:23;;;;;;;35.72;15.40;;;;;;;22.48;53.67;93137.38;5012807;28;20128;-92
2023/07/20 04:02:49;;;;;;;26.70;9.88;;;;;;;22.33;54.24;93140.78;5000989;28;20048;-90
2023/07/20 04:05:15;;;;;;;47.58;14.13;;;;;;;22.33;53.87;93148.28;4988730;28;20117;-87
2023/07/20 04:07:40;;;;;;;40.38;12.18;;;;;;;22.38;54.01;93141.91;5023479;28;20037;-88
2023/07/20 04:10:06;;;;;;;50.22;23.70;;;;;;;22.38;53.95;93139.88;5009398;28;20076;-91
2023/07/20 04:12:32;;;;;;;58.72;21.98;;;;;;;22.40;53.81;93140.09;4990591;28;20045;-91
2023/07/20 04:14:58;;;;;;;53.85;22.10;;;;;;;22.32;54.13;93144.06;4993381;28;20045;-90
2023/07/20 04:17:24;;;;;;;61.75;23.13;;;;;;;22.29;54.20;93143.16;4979792;28;20033;-91
2023/07/20 04:19:49;;;;;;;61.40;22.50;;;;;;;22.19;54.59;93145.66;4996359;28;20040;-91
2023/07/20 04:22:18;;;;;;;52.95;23.27;;;;;;;22.15;54.74;93142.50;4987741;28;20073;-92
2023/07/20 04:24:44;;;;;;;50.47;21.42;;;;;;;22.07;54.91;93146.50;4994265;28;20054;-93
2023/07/20 04:27:10;;;;;;;48.20;18.60;;;;;;;22.13;54.96;93152.59;5026521;28;20034;-91
2023/07/20 04:29:37;;;;;;;38.38;16.10;;;;;;;22.00;55.08;93153.44;4995416;28;20054;-92
2023/07/20 04:32:03;;;;;;;33.90;13.93;;;;;;;22.03;55.19;93146.13;4978724;28;20045;-93
2023/07/20 04:34:28;;;;;;;23.63;10.73;;;;;;;21.96;55.15;93149.53;4977973;28;20073;-93
2023/07/20 04:36:54;;;;;;;26.40;10.05;;;;;;;22.05;55.14;93157.31;4967316;28;20046;-92
2023/07/20 04:39:20;;;;;;;19.88;8.05;;;;;;;22.03;55.50;93152.38;4962064;28;20042;-92
2023/07/20 04:41:46;;;;;;;16.98;9.05;;;;;;;22.01;56.08;93154.19;4973100;28;20053;-93
2023/07/20 04:44:13;;;;;;;22.48;7.80;;;;;;;21.98;55.99;93153.22;4969329;28;20046;-89
2023/07/20 04:46:39;;;;;;;17.48;8.43;;;;;;;21.97;55.88;93151.00;4971958;28;20105;-91
2023/07/20 04:49:05;;;;;;;18.75;8.20;;;;;;;21.96;55.59;93157.78;4960814;28;20544;-91
2023/07/20 04:51:31;;;;;;;16.92;7.60;;;;;;;21.97;55.45;93164.75;4990274;28;20039;-91
2023/07/20 04:53:57;;;;;;;17.15;8.20;;;;;;;21.85;56.23;93164.31;4995048;28;20095;-93
2023/07/20 04:56:30;;;;;;;20.60;7.60;;;;;;;21.97;55.83;93162.00;4977310;28;20045;-91
2023/07/20 04:58:56;;;;;;;13.95;6.25;;;;;;;22.06;55.73;93175.31;4968968;28;20583;-94
2023/07/20 05:01:22;;;;;;;24.52;8.80;;;;;;;22.15;55.02;93180.31;4983827;28;20068;-94
2023/07/20 05:03:52;;;;;;;28.52;9.75;;;;;;;22.13;55.27;93182.88;5005575;28;20500;-93
2023/07/20 05:06:17;;;;;;;29.65;10.07;;;;;;;22.06;55.16;93180.81;5016883;28;20037;-94
2023/07/20 05:08:43;;;;;;;27.48;12.70;;;;;;;21.97;55.37;93179.25;4998890;28;20100;-94
2023/07/20 05:11:09;;;;;;;57.53;27.85;;;;;;;22.04;55.13;93181.38;4998559;28;20433;-94
2023/07/20 05:13:34;;;;;;;60.65;23.38;;;;;;;22.13;55.20;93180.84;5020747;28;20059;-94
2023/07/20 05:16:03;;;;;;;68.20;27.60;;;;;;;22.13;55.01;93189.13;5002453;28;20033;-93
2023/07/20 05:18:34;;;;;;;60.08;22.35;;;;;;;22.08;55.23;93178.28;5013796;28;20112;-90
2023/07/20 05:21:00;;;;;;;68.32;26.95;;;;;;;22.18;54.95;93173.72;4996556;28;20049;-92
2023/07/20 05:23:26;;;;;;;56.15;27.77;;;;;;;22.11;55.33;93171.66;4991175;28;20661;-92
2023/07/20 05:26:00;;;;;;;54.22;25.27;;;;;;;22.14;55.30;93171.31;4993471;28;20057;-92
2023/07/20 05:28:28;;;;;;;33.55;16.70;;;;;;;22.09;55.46;93177.72;5008566;28;20065;-93
2023/07/20 05:30:54;;;;;;;31.33;14.60;;;;;;;22.05;55.80;93162.84;5002560;28;20473;-93
2023/07/20 05:33:20;;;;;;;20.20;12.40;;;;;;;21.92;56.38;93160.13;5013407;28;20044;-91
2023/07/20 05:35:46;;;;;;;31.55;17.38;;;;;;;22.02;56.03;93169.41;4993676;28;20511;-91
2023/07/20 05:38:13;;;;;;;20.77;11.98;;;;;;;22.04;56.14;93175.84;4999125;28;20095;-93
2023/07/20 05:40:41;;;;;;;20.73;10.18;;;;;;;21.96;56.41;93171.53;5015093;28;20663;-93
2023/07/20 05:43:07;;;;;;;15.60;8.70;;;;;;;21.96;56.54;93179.78;4998305;28;20368;-92
2023/07/20 05:45:32;;;;;;;18.25;13.25;;;;;;;22.02;56.59;93175.66;5010949;28;20120;-91
2023/07/20 05:47:58;;;;;;;35.60;17.40;;;;;;;22.08;56.38;93183.78;4999648;28;20051;-92
2023/07/20 05:50:23;;;;;;;22.95;13.77;;;;;;;22.04;56.48;93178.63;5010949;28;20041;-93
2023/07/20 05:52:52;;;;;;;23.42;16.02;;;;;;;22.04;56.96;93181.38;4998775;28;20038;-92
2023/07/20 05:55:18;;;;;;;20.55;12.35;;;;;;;22.01;57.33;93190.69;5004438;28;20053;-91
2023/07/20 05:57:43;;;;;;;13.40;9.60;;;;;;;22.05;57.16;93190.38;4986780;28;20042;-91
2023/07/20 06:00:09;;;;;;;28.95;9.60;;;;;;;22.02;57.80;93191.44;5008919;28;20038;-90
2023/07/20 06:02:35;;;;;;;35.05;9.85;;;;;;;21.98;57.79;93196.50;5010932;28;20042;-90
2023/07/20 06:05:01;;;;;;;24.95;8.80;;;;;;;22.00;58.07;93189.22;5008944;28;20056;-94
2023/07/20 06:07:27;;;;;;;40.00;26.83;;;;;;;21.98;58.69;93189.00;5014680;28;20100;-93
2023/07/20 06:09:52;;;;;;;45.80;23.95;;;;;;;22.05;57.86;93182.09;5001947;28;20029;-91
2023/07/20 06:12:19;;;;;;;43.72;25.27;;;;;;;22.03;57.81;93198.41;5012762;28;20061;-93
2023/07/20 06:14:44;;;;;;;28.48;15.80;;;;;;;22.09;57.83;93199.00;5034395;28;20037;-91
2023/07/20 06:17:12;;;;;;;29.90;18.67;;;;;;;22.18;57.59;93193.75;5011441;28;20059;-93
2023/07/20 06:19:37;;;;;;;37.33;26.58;;;;;;;22.17;57.47;93199.78;4997733;28;20420;-90
2023/07/20 06:22:03;;;;;;;40.97;26.10;;;;;;;22.14;57.50;93193.34;5027384;28;20086;-92
2023/07/20 06:24:28;;;;;;;14.10;11.10;;;;;;;22.16;57.45;93203.81;5019029;28;20049;-93
2023/07/20 06:26:54;;;;;;;23.75;12.52;;;;;;;22.16;57.39;93207.31;5007717;28;20045;-93
2023/07/20 06:29:20;;;;;;;25.85;12.05;;;;;;;22.12;57.17;93190.41;4994181;28;20049;-93
2023/07/20 06:31:46;;;;;;;32.88;15.82;;;;;;;22.12;57.00;93201.41;4998729;28;20408;-93
2023/07/20 06:34:11;;;;;;;49.90;21.35;;;;;;;22.01;57.38;93196.19;4997349;28;20045;-93
2023/07/20 06:36:38;;;;;;;31.90;16.75;;;;;;;22.03;57.13;93196.41;4995015;28;20455;-92
2023/07/20 06:39:04;;;;;;;27.42;15.52;;;;;;;21.98;57.21;93196.50;4997650;28;20107;-92
2023/07/20 06:41:29;;;;;;;31.75;16.30;;;;;;;22.00;57.36;93200.22;5001406;28;20113;-91
2023/07/20 06:43:58;;;;;;;25.55;14.75;;;;;;;21.95;57.36;93189.31;5001274;28;20037;-94
2023/07/20 06:46:28;;;;;;;17.90;10.90;;;;;;;21.94;57.29;93196.09;5003121;28;20045;-93
2023/07/20 06:48:54;;;;;;;88.25;53.85;;;;;;;21.96;56.96;93193.56;5013199;28;20038;-91
2023/07/20 06:51:21;;;;;;;33.45;21.02;;;;;;;21.96;56.63;93188.78;5027811;28;20057;-91
2023/07/20 06:53:48;;;;;;;38.38;21.73;;;;;;;21.93;56.78;93191.88;5009410;28;20033;-92
2023/07/20 06:56:14;;;;;;;30.98;19.15;;;;;;;21.98;56.65;93193.75;5001330;28;20060;-93
2023/07/20 06:58:40;;;;;;;346.98;312.85;;;;;;;21.87;57.11;93192.00;5000650;28;20041;-89
2023/07/20 07:01:06;;;;;;;50.40;20.63;;;;;;;21.94;56.67;93201.63;5039154;28;20044;-91
2023/07/20 07:03:33;;;;;;;39.50;16.30;;;;;;;21.96;56.31;93202.56;5019914;28;20103;-89
2023/07/20 07:05:59;;;;;;;37.22;14.95;;;;;;;21.95;56.10;93205.84;5016086;28;20038;-92
2023/07/20 07:08:26;;;;;;;47.95;14.55;;;;;;;21.99;55.88;93201.47;4989371;28;20092;-91
2023/07/20 07:10:53;;;;;;;30.77;11.60;;;;;;;21.96;55.93;93204.56;5005546;28;20045;-90
2023/07/20 07:13:19;;;;;;;33.53;12.68;;;;;;;21.85;56.06;93206.34;5005477;28;20037;-90
2023/07/20 07:15:45;;;;;;;29.75;12.95;;;;;;;21.78;56.42;93201.50;4986331;28;20050;-89
2023/07/20 07:18:10;;;;;;;29.10;13.57;;;;;;;21.83;56.55;93202.66;4988304;28;20057;-90
2023/07/20 07:20:36;;;;;;;17.48;10.10;;;;;;;21.80;56.63;93209.22;4962918;28;20045;-91
2023/07/20 07:23:02;;;;;;;21.00;9.13;;;;;;;21.78;56.01;93204.25;4969566;28;20049;-90
2023/07/20 07:25:28;;;;;;;15.30;8.02;;;;;;;21.80;56.61;93200.97;4959943;28;20057;-89
2023/07/20 07:27:54;;;;;;;24.42;14.45;;;;;;;21.77;56.47;93200.03;4970747;28;20066;-89
2023/07/20 07:30:19;;;;;;;34.28;19.65;;;;;;;21.78;56.76;93214.53;5003044;28;20136;-89
2023/07/20 07:32:45;;;;;;;32.50;16.73;;;;;;;21.73;56.72;93218.88;4999968;28;20072;-90
2023/07/20 07:35:11;;;;;;;31.50;18.27;;;;;;;21.66;56.72;93210.56;4985374;28;20072;-90
2023/07/20 07:37:38;;;;;;;22.35;13.18;;;;;;;21.78;56.47;93211.78;4973199;28;20050;-90
2023/07/20 07:40:06;;;;;;;46.40;17.02;;;;;;;21.71;56.95;93209.69;4989249;28;20046;-89
2023/07/20 07:42:32;;;;;;;30.40;12.93;;;;;;;21.64;57.07;93202.13;4991717;28;20551;-88
2023/07/20 07:44:57;;;;;;;26.30;10.95;;;;;;;21.58;57.27;93209.75;4961279;28;20046;-90
2023/07/20 07:47:23;;;;;;;27.42;10.00;;;;;;;21.44;57.86;93209.06;5020527;28;20068;-89
2023/07/20 07:49:49;;;;;;;23.63;10.23;;;;;;;21.43;58.03;93213.84;5028501;28;20037;-91
2023/07/20 07:52:15;;;;;;;25.35;11.32;;;;;;;21.43;58.15;93205.59;5008099;28;20042;-89
2023/07/20 07:54:41;;;;;;;27.67;13.75;;;;;;;21.43;58.27;93211.09;5015819;28;20661;-91
2023/07/20 07:57:07;;;;;;;26.05;12.85;;;;;;;21.49;58.70;93210.97;4994806;28;20045;-90
2023/07/20 07:59:37;;;;;;;34.20;10.15;;;;;;;21.59;58.28;93214.72;5010238;28;20037;-90
2023/07/20 08:02:04;;;;;;;27.73;12.52;;;;;;;21.66;58.27;93207.81;4996033;28;20033;-90
2023/07/20 08:04:30;;;;;;;24.77;15.70;;;;;;;21.72;57.25;93214.66;5021549;28;20056;-91
2023/07/20 08:06:55;;;;;;;27.15;16.75;;;;;;;21.66;57.55;93222.28;5009388;28;20038;-87
2023/07/20 08:09:21;;;;;;;46.38;27.25;;;;;;;21.73;57.45;93213.38;5003972;28;20100;-88
2023/07/20 08:11:48;;;;;;;33.17;21.92;;;;;;;21.77;57.35;93221.31;4995587;28;20041;-90
2023/07/20 08:14:13;;;;;;;31.52;19.00;;;;;;;21.74;56.50;93216.88;4994850;28;20050;-88
2023/07/20 08:16:39;;;;;;;23.38;14.63;;;;;;;21.63;56.31;93214.41;5004907;28;20046;-89
2023/07/20 08:19:04;;;;;;;19.55;10.43;;;;;;;21.60;56.60;93220.97;5002603;28;20072;-90
2023/07/20 08:21:29;;;;;;;15.85;11.23;;;;;;;21.53;56.93;93223.09;5009533;28;20056;-91
2023/07/20 08:23:55;;;;;;;23.23;13.70;;;;;;;21.51;56.43;93231.16;4975877;28;20042;-92
2023/07/20 08:26:22;;;;;;;24.77;13.23;;;;;;;21.47;56.09;93225.25;4994024;28;20112;-93
2023/07/20 08:28:48;;;;;;;22.77;12.68;;;;;;;21.44;56.23;93236.56;4973733;28;20186;-90
2023/07/20 08:31:13;;;;;;;22.00;12.35;;;;;;;21.30;56.12;93246.16;4989697;28;20045;-90
2023/07/20 08:33:39;;;;;;;16.23;10.65;;;;;;;21.22;56.30;93234.34;4996389;28;20060;-90
2023/07/20 08:36:05;;;;;;;18.13;10.75;;;;;;;21.27;56.42;93238.97;4995373;28;20107;-91
2023/07/20 08:38:31;;;;;;;21.77;8.57;;;;;;;21.13;56.08;93235.50;4996879;28;20042;-90
2023/07/20 08:40:57;;;;;;;23.77;12.57;;;;;;;21.17;55.31;93233.16;5007489;28;20660;-88
2023/07/20 08:43:23;;;;;;;42.03;19.20;;;;;;;21.22;55.48;93237.81;5006658;28;20076;-90
2023/07/20 08:45:49;;;;;;;53.63;23.05;;;;;;;21.26;55.26;93238.22;5014486;28;20041;-90
2023/07/20 08:48:14;;;;;;;63.15;23.50;;;;;;;21.36;54.80;93239.25;4995496;28;20049;-90
2023/07/20 08:50:40;;;;;;;55.63;22.60;;;;;;;21.42;54.34;93237.13;5018632;28;20082;-91
2023/07/20 08:53:06;;;;;;;49.72;17.30;;;;;;;21.45;54.11;93238.03;5009396;28;20041;-90
2023/07/20 08:55:32;;;;;;;27.42;13.45;;;;;;;21.49;53.45;93241.22;4989817;28;20485;-91
2023/07/20 08:57:58;;;;;;;15.38;8.63;;;;;;;21.48;52.40;93239.72;4991446;28;20033;-87
2023/07/20 09:00:25;;;;;;;16.20;6.50;;;;;;;21.43;52.05;93244.09;4997005;28;20072;-91
2023/07/20 09:02:52;;;;;;;9.70;6.05;;;;;;;21.42;51.94;93237.13;5023687;28;20065;-91
2023/07/20 09:05:20;;;;;;;19.15;8.38;;;;;;;21.49;51.75;93252.22;5010026;28;20125;-91
2023/07/20 09:07:45;;;;;;;19.42;8.90;;;;;;;21.51;51.35;93249.66;5008725;28;20046;-90
2023/07/20 09:10:12;;;;;;;34.55;12.30;;;;;;;21.55;51.19;93244.56;5008583;28;20052;-91
2023/07/20 09:12:41;;;;;;;23.95;13.05;;;;;;;21.53;50.55;93247.88;5014751;28;20053;-90
2023/07/20 09:15:07;;;;;;;21.90;12.07;;;;;;;21.53;50.50;93247.13;5004475;28;20046;-89
2023/07/20 09:17:33;;;;;;;18.67;8.60;;;;;;;21.46;49.88;93242.28;4994329;28;20045;-89
2023/07/20 09:20:05;;;;;;;24.65;8.40;;;;;;;21.43;49.69;93249.59;5016754;28;20401;-88
2023/07/20 09:22:30;;;;;;;35.25;9.05;;;;;;;21.37;49.01;93254.50;5014290;28;20081;-90
2023/07/20 09:24:56;;;;;;;27.75;11.05;;;;;;;21.34;48.88;93252.81;5033999;28;20764;-89
2023/07/20 09:27:22;;;;;;;33.22;10.57;;;;;;;21.33;49.26;93250.59;4997141;28;20048;-91
2023/07/20 09:29:51;;;;;;;30.77;9.43;;;;;;;21.31;48.96;93242.88;5012221;28;20048;-90
2023/07/20 09:32:22;;;;;;;19.60;6.63;;;;;;;21.40;48.75;93242.41;5023953;28;20813;-92
2023/07/20 09:34:49;;;;;;;16.08;5.53;;;;;;;21.45;48.78;93243.53;4992065;28;20050;-90
2023/07/20 09:37:22;;;;;;;51.35;13.63;;;;;;;21.48;48.31;93234.22;5011135;28;20478;-88
2023/07/20 09:39:49;;;;;;;56.38;15.90;;;;;;;21.54;48.64;93235.59;5024460;28;20557;-92
2023/07/20 09:42:15;;;;;;;60.15;18.27;;;;;;;21.61;48.70;93238.94;5016481;28;20052;-91
2023/07/20 09:44:50;;;;;;;28.20;10.77;;;;;;;21.59;48.40;93231.22;5008424;28;20034;-90
2023/07/20 09:47:21;;;;;;;20.77;8.95;;;;;;;21.53;48.14;93236.13;5014555;28;20405;-89
2023/07/20 09:49:49;;;;;;;22.95;9.95;;;;;;;21.51;47.66;93233.16;5007861;28;20037;-91
2023/07/20 09:52:15;;;;;;;20.10;8.95;;;;;;;21.48;47.46;93234.22;5012389;28;20158;-90
2023/07/20 09:54:40;;;;;;;12.77;4.95;;;;;;;21.48;47.21;93236.97;4996565;28;20030;-91
2023/07/20 09:57:08;;;;;;;13.05;4.38;;;;;;;21.45;47.28;93240.78;5004826;28;20128;-89
2023/07/20 09:59:34;;;;;;;12.07;4.18;;;;;;;21.50;47.50;93240.69;5004703;28;20045;-93
2023/07/20 10:02:01;;;;;;;24.25;4.72;;;;;;;21.47;47.32;93238.25;5025015;28;20137;-90
2023/07/20 10:04:26;;;;;;;7.85;3.30;;;;;;;21.42;47.02;93239.88;5007724;28;20077;-90
2023/07/20 10:06:52;;;;;;;7.22;2.53;;;;;;;21.45;47.47;93236.03;4985234;28;20034;-91
2023/07/20 10:09:18;;;;;;;6.97;2.35;;;;;;;21.41;47.02;93243.16;5006538;28;20050;-91
2023/07/20 10:11:48;;;;;;;6.13;2.40;;;;;;;21.43;47.09;93252.34;5000173;28;20145;-90
2023/07/20 10:14:14;;;;;;;24.77;3.08;;;;;;;21.36;46.89;93246.78;5000941;28;20056;-90
2023/07/20 10:16:46;;;;;;;4.25;2.50;;;;;;;21.36;47.46;93244.03;5033332;28;20038;-91
2023/07/20 10:19:17;;;;;;;3.83;2.28;;;;;;;21.42;47.64;93244.63;5027697;28;20087;-91
2023/07/20 10:21:47;;;;;;;3.25;2.30;;;;;;;21.52;47.36;93240.16;5012173;28;20041;-91
2023/07/20 10:24:12;;;;;;;8.57;2.15;;;;;;;21.51;47.19;93231.16;5004407;28;20041;-91
2023/07/20 10:26:38;;;;;;;7.20;2.13;;;;;;;21.57;47.35;93231.03;5028028;28;20083;-90
2023/07/20 10:29:03;;;;;;;5.45;2.30;;;;;;;21.65;47.42;93240.06;5008656;28;20038;-91
2023/07/20 10:31:29;;;;;;;3.72;1.90;;;;;;;21.66;47.03;93233.31;5007750;28;20054;-90
2023/07/20 10:33:56;;;;;;;7.75;2.10;;;;;;;21.59;46.86;93247.75;5006688;28;20046;-91
2023/07/20 10:36:27;;;;;;;8.13;2.30;;;;;;;21.50;46.73;93242.69;5011508;28;20073;-91
2023/07/20 10:38:54;;;;;;;;;;;;;;;21.49;46.93;93244.69;5008315;28;20493;-91
2023/07/20 10:41:31;;;;;;;8.45;2.33;;;;;;;21.55;47.10;93250.81;4991650;28;19922;-91
2023/07/20 10:44:05;;;;;;;6.93;2.70;;;;;;;21.55;46.59;93247.31;4994686;28;20148;-91
2023/07/20 10:46:42;;;;;;;29.48;13.27;;;;;;;21.59;46.94;93250.50;5017529;28;20094;-90
2023/07/20 10:49:09;;;;;;;28.42;16.42;;;;;;;21.60;46.91;93245.72;5022567;28;20132;-90
2023/07/20 10:51:42;;;;;;;31.70;16.00;;;;;;;21.53;47.17;93247.13;4992591;28;20045;-88
2023/07/20 10:54:16;;;;;;;45.50;19.00;;;;;;;21.60;47.46;93259.47;5018516;28;20029;-89
2023/07/20 10:56:42;;;;;;;50.10;17.50;;;;;;;21.62;47.12;93245.94;5023669;28;20042;-92
2023/07/20 10:59:20;;;;;;;29.10;12.02;;;;;;;21.60;47.42;93248.47;5008809;28;20100;-90
2023/07/20 11:01:47;;;;;;;32.88;9.82;;;;;;;21.69;47.04;93246.00;5006167;28;20029;-89
2023/07/20 11:04:12;;;;;;;21.33;6.07;;;;;;;21.56;46.82;93235.06;5006266;28;20042;-89
2023/07/20 11:06:40;;;;;;;30.08;6.72;;;;;;;21.60;47.16;93242.97;5012762;28;20461;-91
2023/07/20 11:09:11;;;;;;;24.75;6.25;;;;;;;21.68;47.15;93233.50;5013665;28;20139;-91
2023/07/20 11:11:38;;;;;;;35.17;8.75;;;;;;;21.70;47.44;93235.72;4982434;28;20109;-90
2023/07/20 11:14:06;;;;;;;23.13;8.88;;;;;;;21.66;47.34;93235.31;5005835;28;20041;-90
2023/07/20 11:16:41;;;;;;;31.83;10.27;;;;;;;21.74;46.70;93236.88;5013671;28;20049;-91
2023/07/20 11:19:17;;;;;;;28.77;10.80;;;;;;;21.73;46.59;93235.38;5009185;28;20103;-91
2023/07/20 11:21:45;;;;;;;50.55;16.10;;;;;;;21.76;46.67;93239.09;5029388;28;20045;-89